Weather observations for the past three days for
Sacramento, McClellan Airfield Airport
Metric (Imperial)
Date Time (pdt) Wind (kph) Vis. (km) Weather Sky Cond. Temperature (ºC) Relative Humidity Wind Chill (°C) Heat Index (°C) Pressure Precipitation (cm)
Air Dwpt 6 hour altimeter (cm) sea level (mb) 1 hr 3 hr 6 hr
Max. Min.
08 18:15 SW 9 16.09 Fair CLR 29 14 40% 29 75.97 0.0
08 17:55 Vrbl 7 16.09 Fair CLR 29 14 40% 29 76 0.0
08 17:35 W 9 16.09 Fair CLR 29 14 40% 29 76 0.0
08 17:15 NW 11 12.87 Fair CLR 29 14 40% 29 76.02 0.0
08 16:55 NW 11 16.09 Fair CLR 29 14 40% 29 76.02 0.0
08 16:35 Calm 14.48 Fair CLR 29 14 40% 29 76.05 0.0
08 16:15 W 7 16.09 Fair CLR 29 14 40% 29 76.05 0.0
08 15:55 Calm 16.09 Fair CLR 28 14 42% 28 76.07 0.0
08 15:35 W 6 16.09 Fair CLR 28 14 42% 28 76.1 0.0
08 15:15 Calm 16.09 Fair CLR 28 14 42% 28 76.12 0.0
08 14:55 W 9 16.09 Fair CLR 27 15 48% 27 76.15 0.0
08 14:35 Vrbl 9 G 20 16.09 Fair CLR 27 15 48% 27 76.17 0.0
08 14:15 Calm 16.09 Fair CLR 26 14 48% 26 76.2 0.0
08 13:55 N 9 16.09 Fair CLR 26 15 51% 27 76.2 0.0
08 13:35 Calm 16.09 Fair CLR 25 13 47% 26 76.23 0.0
08 13:15 Calm 16.09 Fair CLR 25 14 51% 26 76.23 0.0
08 12:55 Vrbl 9 16.09 Fair CLR 25 14 51% 26 76.25 0.0
08 12:35 NW 6 16.09 Fair CLR 24 14 54% 25 76.28 0.0
08 12:15 Calm 16.09 Fair CLR 23 13 53% 76.28 0.0
08 11:55 SW 9 16.09 Fair CLR 22 13 57% 76.3 0.0
08 11:35 SW 9 12.87 Fair CLR 21 13 60% 76.3 0.0
08 11:15 Calm 16.09 Fair CLR 21 13 60% 76.3 0.0
08 10:55 S 7 16.09 Fair CLR 20 13 64% 76.33 0.0
08 10:35 S 11 16.09 Fair CLR 19 13 68% 76.33 0.0
08 10:15 SE 13 16.09 Fair CLR 19 13 68% 76.33 0.0
08 09:55 SE 9 16.09 Fair CLR 18 13 73% 76.33 0.0
08 09:35 Vrbl 9 16.09 Fair CLR 17 13 77% 76.33 0.0
08 09:15 S 9 16.09 Fair CLR 16 13 83% 76.33 0.0
08 08:55 S 13 16.09 Fair CLR 15 13 88% 76.33 0.0
08 08:30 SE 11 16.09 Fair CLR 15 13 88% 76.33 0.0
08 08:15 SE 11 16.09 Fair CLR 14 13 94% 76.33 0.0
08 07:55 S 13 G 22 16.09 Fair CLR 14 12 88% 76.33 0.0
08 07:35 S 15 16.09 Fair CLR 13 12 94% 76.3 0.0
08 07:15 S 13 16.09 Fair CLR 13 12 94% 76.3 0.0
08 06:55 S 17 16.09 Fair CLR 12 12 100% 76.28 0.0
08 06:35 S 19 16.09 Fair CLR 12 12 100% 76.25 0.0
08 06:15 SE 11 16.09 Fair CLR 12 11 94% 76.25 0.0
08 05:55 S 13 16.09 Fair CLR 12 12 100% 76.25 0.0
08 05:35 S 15 16.09 Fair CLR 12 12 100% 76.25 0.0
08 05:15 S 13 16.09 Fair CLR 12 12 100% 76.25 0.0
08 04:50 SE 13 16.09 Fair CLR 12 12 100% 76.23 0.0
08 04:35 SE 13 16.09 Fair CLR 12 12 100% 76.23 0.0
08 04:15 SE 11 16.09 Fair CLR 12 12 100% 76.23 0.0
08 03:55 SE 13 16.09 Fair CLR 13 12 94% 76.23 0.0
08 03:35 SE 13 16.09 Fair CLR 13 13 100% 76.23 0.0
08 03:15 SE 15 16.09 Fair CLR 13 13 100% 76.23 0.0
08 02:55 SE 17 16.09 Fair CLR 13 13 100% 76.23 0.0
08 02:35 SE 13 16.09 Fair CLR 13 13 100% 76.2 0.0
08 02:15 S 13 16.09 Fair CLR 13 13 100% 76.2 0.0
08 01:55 SE 15 16.09 Fair CLR 14 13 94% 76.2 0.0
08 01:35 S 11 16.09 Fair CLR 14 13 94% 76.2 0.0
08 01:10 S 15 16.09 Fair CLR 15 14 94% 76.2 0.0
08 00:55 S 13 16.09 Fair CLR 15 14 94% 76.2 0.0
08 00:35 S 17 16.09 Fair CLR 15 14 94% 76.2 0.0
08 00:15 S 11 16.09 Fair CLR 15 14 94% 76.17 0.0
07 23:55 S 11 16.09 Fair CLR 16 14 88% 76.17 0.0
07 23:35 S 15 16.09 Fair CLR 16 14 88% 76.17 0.0
07 23:15 S 11 16.09 Fair CLR 16 14 88% 76.15 0.0
07 22:55 SE 17 16.09 Fair CLR 16 14 88% 76.15 0.0
07 22:35 S 13 16.09 Fair CLR 17 14 83% 76.15 0.0
07 22:15 S 13 16.09 Fair CLR 18 14 78% 76.15 0.0
07 21:55 S 15 16.09 Fair CLR 19 15 78% 76.15 0.0
07 21:35 S 13 16.09 Fair CLR 19 15 78% 76.12 0.0
07 21:15 S 13 16.09 Fair CLR 20 15 73% 76.12 0.0
07 20:55 S 13 16.09 Fair CLR 21 16 73% 76.1 0.0
07 20:35 S 15 16.09 Fair CLR 22 16 69% 76.07 0.0
07 20:15 S 11 16.09 Fair CLR 24 16 61% 25 76.07 0.0
07 19:55 S 19 16.09 Fair CLR 25 17 61% 26 76.05 0.0
07 19:35 SW 17 16.09 Fair CLR 26 17 58% 27 76.05 0.0
07 19:15 Calm 16.09 Fair CLR 28 15 45% 28 76.05 0.0
07 18:55 S 9 16.09 Fair CLR 28 15 45% 28 76.05 0.0
07 18:35 SW 7 16.09 Fair CLR 28 15 45% 28 76.05 0.0
07 18:15 SW 6 16.09 Fair CLR 28 15 45% 28 76.05 0.0
07 17:55 SW 7 16.09 Fair CLR 28 15 45% 28 76.07 0.0
07 17:35 Vrbl 9 16.09 Fair CLR 28 15 45% 28 76.07 0.0
07 17:15 Vrbl 9 16.09 Fair CLR 28 15 45% 28 76.07 0.0
07 16:55 Vrbl 6 16.09 Fair CLR 28 15 45% 28 76.07 0.0
07 16:35 Calm 16.09 Fair CLR 28 15 45% 28 76.1 0.0
07 16:15 Calm 16.09 Fair CLR 28 15 45% 28 76.1 0.0
07 15:55 Calm 16.09 Fair CLR 28 15 45% 28 76.12 0.0
07 15:35 Calm 16.09 Fair CLR 27 15 48% 27 76.15 0.0
07 15:15 SW 7 G 19 16.09 Fair CLR 27 15 48% 27 76.17 0.0
07 14:55 N 7 16.09 Fair CLR 27 15 48% 27 76.2 0.0
07 14:35 Calm 16.09 Fair CLR 26 15 51% 27 76.23 0.0
07 14:15 Calm 16.09 Fair CLR 25 14 51% 26 76.25 0.0
07 13:55 Calm 16.09 Fair CLR 25 15 54% 26 76.28 0.0
07 13:35 Calm 16.09 Fair CLR 25 14 51% 26 76.28 0.0
07 13:15 Vrbl 6 16.09 Fair CLR 25 14 51% 26 76.3 0.0
07 12:55 Vrbl 9 16.09 Fair CLR 24 15 57% 25 76.3 0.0
07 12:35 Vrbl 7 16.09 Fair CLR 23 15 61% 76.33 0.0
07 12:15 Vrbl 6 16.09 Fair CLR 23 15 61% 76.35 0.0
07 11:55 SW 6 16.09 Fair CLR 22 15 65% 76.38 0.0
07 11:35 Calm 16.09 NULL NULL 21 14 64% 76.38 0.0
07 11:15 Vrbl 9 0.00 NULL NULL 21 14 64% 76.4 0.0
07 10:55 Calm 16.09 NULL NULL 20 14 69% 76.4 0.0 0.15
07 09:35 S 6 0.00 Fair CLR 18 14 78% 76.4 0.0
07 09:15 Vrbl 7 0.00 Fair CLR 17 14 83% 76.4 0.0
07 08:55 S 7 16.09 Fair CLR 16 14 88% 76.43 0.0
07 08:35 Vrbl 9 16.09 A Few Clouds FEW008 15 14 94% 76.43 0.0
07 08:15 Vrbl 7 16.09 Mostly Cloudy BKN007 15 13 88% 76.43 0.0
07 07:55 S 9 12.87 Overcast OVC006 14 13 94% 76.43 0.0
07 07:35 S 9 11.27 Overcast OVC005 13 13 100% 76.43 0.0
07 07:15 SE 13 9.66 Fog/Mist OVC005 13 13 100% 76.4 0.0
07 06:55 S 15 9.66 Fog/Mist BKN005 13 13 100% 76.38 0.0
07 06:35 S 13 14.48 A Few Clouds FEW006 13 13 100% 76.38 0.0
07 06:15 S 11 16.09 Fair CLR 13 13 100% 76.35 0.0
07 05:55 S 9 16.09 Fair CLR 13 12 94% 76.35 0.0
07 05:35 S 13 16.09 Fair CLR 13 13 100% 76.35 0.0
07 05:15 S 9 16.09 Fair CLR 13 13 100% 76.35 0.0
07 04:55 SE 11 16.09 Fair CLR 13 13 100% 76.35 0.0
07 04:35 SE 13 16.09 Fair CLR 13 13 100% 76.35 0.0
07 04:15 S 11 16.09 Fair CLR 14 13 94% 76.35 0.0
07 03:55 S 13 16.09 Fair CLR 14 13 94% 76.35 0.0
07 03:35 SE 13 16.09 Fair CLR 14 13 94% 76.33 0.0
07 03:15 SE 11 16.09 Fair CLR 14 13 94% 76.35 0.0
07 02:55 SE 13 16.09 Fair CLR 14 13 94% 76.35 0.0
07 02:35 SE 11 16.09 Fair CLR 14 13 94% 76.35 0.0
07 02:15 SE 13 16.09 Fair CLR 14 13 94% 76.35 0.0
07 01:55 SE 11 16.09 Fair CLR 15 13 88% 76.35 0.0
07 01:35 SE 9 16.09 Fair CLR 14 13 94% 76.35 0.0
07 01:15 SE 11 16.09 Fair CLR 15 13 88% 76.35 0.0
07 00:55 SE 13 16.09 Fair CLR 15 13 88% 76.35 0.0
07 00:35 S 9 16.09 Fair CLR 15 13 88% 76.35 0.0
07 00:15 S 13 16.09 Fair CLR 15 13 88% 76.35 0.0
06 23:55 S 11 16.09 Fair CLR 16 13 83% 76.35 0.0
06 23:35 S 9 16.09 Fair CLR 17 13 77% 76.33 0.0
06 23:15 S 11 16.09 Fair CLR 17 13 77% 76.33 0.0
06 22:55 S 13 16.09 Fair CLR 18 14 78% 76.33 0.0
06 22:35 S 13 16.09 Fair CLR 18 14 78% 76.33 0.0
06 22:15 S 11 16.09 Fair CLR 18 14 78% 76.33 0.0
06 21:55 S 11 16.09 Fair CLR 19 14 73% 76.33 0.0
06 21:35 S 11 16.09 Fair CLR 20 15 73% 76.3 0.0
06 21:15 SW 13 16.09 Fair CLR 20 15 73% 76.3 0.0
06 20:55 SW 19 16.09 Fair CLR 21 15 69% 76.28 0.0
06 20:35 SE 9 16.09 Fair CLR 21 14 64% 76.25 0.0
06 20:15 SE 9 16.09 Fair CLR 21 14 64% 76.25 0.0
06 19:55 Calm 16.09 Fair CLR 22 14 61% 76.25 0.0
06 19:35 Calm 16.09 Fair CLR 23 14 57% 76.25 0.0
06 18:55 Calm 16.09 Fair CLR 23 13 53% 76.25 0.0
06 18:35 Calm 16.09 Fair CLR 23 13 53% 76.25 0.0
06 18:15 Calm 16.09 Fair CLR 23 13 53% 76.25 0.0
06 17:55 Calm 16.09 Fair CLR 23 13 53% 76.25 0.0
06 17:35 Calm 16.09 Fair CLR 23 14 57% 76.28 0.0
06 17:15 Calm 16.09 Fair CLR 23 13 53% 76.28 0.0
06 16:55 Vrbl 7 14.48 Fair CLR 23 14 57% 76.28 0.0
06 16:35 N 9 G 19 16.09 Fair CLR 23 13 53% 76.28 0.0
06 16:15 Calm 16.09 Fair CLR 23 13 53% 76.3 0.0
06 15:55 Vrbl 7 14.48 Fair CLR 23 13 53% 76.33 0.0
06 15:35 Vrbl 11 16.09 A Few Clouds FEW038 22 13 57% 76.35 0.0
06 15:15 N 13 16.09 A Few Clouds FEW038 22 13 57% 76.38 0.0
06 14:55 N 11 16.09 Partly Cloudy SCT038 22 13 57% 76.4 0.0
06 14:35 NW 13 16.09 Mostly Cloudy BKN038 22 13 57% 76.4 0.0
06 14:15 NW 11 16.09 Overcast OVC038 22 13 57% 76.43 0.0
06 13:55 Vrbl 9 16.09 Overcast OVC038 21 12 57% 76.45 0.0
06 13:35 Calm 16.09 Overcast OVC038 21 12 57% 76.45 0.0
06 13:15 Calm 16.09 Overcast OVC038 21 12 57% 76.48 0.0
06 12:55 NW 7 16.09 Overcast OVC037 21 12 57% 76.48 0.0
06 12:35 N 9 G 19 16.09 Overcast OVC040 21 13 60% 76.5 0.0
06 12:15 Vrbl 7 16.09 Overcast FEW034 OVC043 20 12 60% 76.53 0.0
06 11:55 Calm 16.09 Overcast OVC043 20 12 60% 76.53 0.0
06 11:35 Calm 16.09 Overcast OVC043 19 12 64% 76.56 0.0
06 11:15 Vrbl 6 16.09 Overcast OVC043 20 12 60% 76.56 0.0
06 10:55 SW 6 16.09 Overcast OVC043 19 12 64% 76.56 0.0 0.03
06 10:35 Calm 16.09 Overcast OVC042 18 12 68% 76.56 0.0
06 10:15 Calm 16.09 Overcast OVC043 17 12 73% 76.56 0.0
06 09:55 Calm 16.09 Overcast OVC043 17 12 73% 76.56 0.0
06 09:35 Calm 16.09 Overcast OVC043 17 12 73% 76.56 0.0
06 09:15 S 6 16.09 Overcast OVC044 16 12 77% 76.56 0.0
06 08:55 S 7 16.09 Overcast OVC044 16 12 77% 76.56 0.0
06 08:35 SE 7 16.09 Overcast OVC045 15 12 82% 76.56 0.0
06 08:15 SE 6 16.09 Overcast OVC045 15 12 82% 76.53 0.0
06 07:55 SE 6 16.09 Overcast OVC046 15 12 82% 76.53 0.0
06 07:35 S 7 16.09 Overcast OVC046 15 12 82% 76.53 0.0
06 07:15 SE 6 16.09 Overcast OVC047 14 12 88% 76.53 0.0
06 06:55 SE 9 16.09 Overcast OVC047 14 12 88% 76.5 0.0
06 06:35 SE 11 16.09 Overcast OVC047 14 12 88% 76.48 0.0
06 06:15 SE 11 16.09 Overcast OVC047 14 12 88% 76.48 0.0
06 05:55 SE 9 16.09 Overcast OVC048 14 12 88% 76.48 0.0
06 05:35 SE 11 16.09 Overcast OVC049 14 12 88% 76.45 0.0
06 05:15 SE 11 16.09 Overcast OVC050 14 12 88% 76.45 0.0
06 04:55 SE 11 16.09 Overcast OVC050 14 12 88% 76.45 0.0
06 04:35 SE 11 16.09 Overcast OVC050 15 12 82% 76.45 0.0
06 04:15 SE 11 16.09 Overcast OVC050 15 12 82% 76.43 0.0
06 03:55 SE 9 16.09 Overcast OVC050 15 12 82% 76.43 0.0 0.03
06 03:35 S 7 16.09 Overcast OVC050 15 12 82% 76.4 0.0
06 03:15 SE 11 16.09 Overcast OVC049 15 12 82% 76.4 0.0
06 02:55 S 13 16.09 Overcast OVC047 15 12 82% 76.38 0.0
06 02:35 S 7 16.09 Overcast OVC047 15 12 82% 76.4 0.0
06 02:15 SE 7 16.09 Overcast OVC048 15 12 82% 76.4 0.0
06 01:55 SE 11 16.09 Overcast OVC047 15 12 82% 76.4 0.0
06 01:35 SE 7 16.09 Overcast OVC047 15 12 82% 76.4 0.0
06 01:15 SE 11 16.09 Overcast BKN046 OVC050 15 12 82% 76.4 0.0
06 00:55 SE 13 16.09 Overcast OVC045 15 12 82% 76.38 0.0
06 00:35 SE 9 16.09 Overcast BKN046 OVC050 15 12 82% 76.38 0.0
06 00:15 S 9 16.09 Overcast BKN044 OVC050 16 12 77% 76.35 0.0
05 23:55 S 9 16.09 Overcast OVC048 16 12 77% 76.35 0.0
05 23:35 S 13 16.09 Overcast OVC047 16 12 77% 76.33 0.0
05 23:15 SW 11 16.09 Overcast OVC047 16 12 77% 76.33 0.0
05 22:55 S 9 16.09 Overcast OVC048 16 12 77% 76.33 0.0
05 22:35 S 9 16.09 Overcast OVC046 16 12 77% 76.3 0.0
05 22:15 S 11 16.09 Overcast OVC046 16 12 77% 76.3 0.0
05 21:55 S 9 16.09 Overcast OVC047 16 12 77% 76.28 0.0 0.03
05 21:35 S 13 16.09 Overcast OVC048 17 12 73% 76.25 0.0
05 21:15 SW 20 16.09 Overcast OVC050 17 12 73% 76.23 0.0
05 20:55 SW 20 16.09 Overcast OVC050 17 12 73% 76.23 0.0
05 20:35 S 15 16.09 Overcast OVC048 18 13 73% 76.2 0.0
05 20:15 S 11 16.09 Overcast BKN042 OVC047 18 13 73% 76.17 0.0
05 19:55 S 15 16.09 Overcast FEW034 OVC040 18 13 73% 76.15 0.0
05 19:35 S 15 16.09 Overcast SCT033 BKN040 OVC048 18 13 73% 76.15 0.0
05 19:15 S 19 16.09 Overcast BKN038 OVC050 18 13 73% 76.12 0.0
05 18:55 S 15 16.09 Overcast OVC050 19 12 64% 76.12 0.0 0.03
05 18:35 S 17 16.09 Overcast FEW037 OVC049 19 12 64% 76.1 0.0
Date Time (pdt) Wind (kph) Vis. (km) Weather Sky Cond. Air Dwpt Max. Min. Relative Humidity Wind Chill (°C) Heat Index (°C) altimeter (cm) sea level (mb) 1 hr 3 hr 6 hr
6 hour
Temperature (ºC) Pressure Precipitation (cm)